Time;durP1;ratioP1;P1;durP2;ratioP2;P2;SDS_P1;SDS_P2;PMS_P1;PMS_P2;Temp;Humidity;BMP_temperature;BMP_pressure;BME280_temperature;BME280_humidity;BME280_pressure;Samples;Min_cycle;Max_cycle;Signal;HPM_P1;HPM_P2
2021/03/25 07:14:10;;;;;;;23.17;17.67;;;;;;;;;;12977612;22;20011;-87
2021/03/25 07:19:14;;;;;;;33.70;26.88;;;;;;;;;;12977823;22;20065;-87
2021/03/25 07:24:34;;;;;;;18.23;15.95;;;;;;;;;;13015550;22;20015;-85
2021/03/25 07:30:04;;;;;;;21.05;18.85;;;;;;;;;;13011461;22;20336;-87
2021/03/25 07:35:15;;;;;;;15.02;13.05;;;;;;;;;;12984821;22;20009;-87
2021/03/25 07:40:26;;;;;;;13.52;12.23;;;;;;;;;;13011731;22;20014;-86
2021/03/25 07:45:27;;;;;;;21.30;19.00;;;;;;;;;;12990472;22;20339;-86
2021/03/25 07:50:33;;;;;;;20.88;17.25;;;;;;;;;;12996710;22;20049;-87
2021/03/25 07:55:40;;;;;;;19.60;16.70;;;;;;;;;;12986812;22;20004;-86
2021/03/25 08:00:42;;;;;;;16.00;12.23;;;;;;;;;;12984007;22;20010;-87
2021/03/25 08:06:07;;;;;;;19.75;13.93;;;;;;;;;;12978083;22;20035;-87
2021/03/25 08:39:58;;;;;;;35.90;28.60;;;;;;;;;;13002390;22;20070;-86
2021/03/25 09:14:01;;;;;;;36.05;30.30;;;;;;;;;;13010618;22;20059;-83
2021/03/25 09:31:06;;;;;;;30.45;26.55;;;;;;;;;;12805566;23;20009;-86
2021/03/25 09:36:35;;;;;;;31.08;23.92;;;;;;;;;;12972692;22;20007;-86
2021/03/25 10:15:53;;;;;;;26.08;20.48;;;;;;;;;;13001310;22;19995;-87
2021/03/25 10:21:06;;;;;;;25.58;19.10;;;;;;;;;;12996176;22;20064;-85
2021/03/25 10:26:07;;;;;;;;;;;;;;;;;;12981141;22;20004;-86
2021/03/25 10:31:17;;;;;;;29.13;23.65;;;;;;;;;;12975077;22;19899;-87
2021/03/25 10:36:17;;;;;;;;;;;;;;;;;;12985880;22;19999;-85
2021/03/25 10:41:25;;;;;;;23.80;20.17;;;;;;;;;;13017255;22;19891;-87
2021/03/25 10:46:29;;;;;;;30.45;20.55;;;;;;;;;;13012341;22;20008;-86
2021/03/25 10:51:31;;;;;;;25.33;19.10;;;;;;;;;;12970039;22;20439;-86
2021/03/25 10:56:37;;;;;;;41.20;36.47;;;;;;;;;;12992901;22;20018;-87
2021/03/25 11:01:47;;;;;;;28.48;22.27;;;;;;;;;;13007529;22;19997;-86
2021/03/25 11:06:48;;;;;;;26.95;21.15;;;;;;;;;;12931424;23;20004;-86
2021/03/25 11:12:02;;;;;;;30.98;24.80;;;;;;;;;;12934618;22;20008;-84
2021/03/25 11:17:12;;;;;;;28.17;17.60;;;;;;;;;;12938116;23;20344;-83
2021/03/25 11:22:13;;;;;;;25.10;17.00;;;;;;;;;;12934465;22;20007;-86
2021/03/25 11:27:25;;;;;;;23.15;19.08;;;;;;;;;;12949859;23;19997;-87
2021/03/25 11:32:31;;;;;;;21.25;15.50;;;;;;;;;;12935386;22;20011;-86
2021/03/25 11:37:35;;;;;;;21.48;14.60;;;;;;;;;;12938968;23;20011;-85
2021/03/25 11:42:36;;;;;;;20.63;16.35;;;;;;;;;;12933213;22;20482;-87
2021/03/25 11:47:42;;;;;;;21.95;14.20;;;;;;;;;;12950015;23;20042;-88
2021/03/25 11:52:44;;;;;;;17.55;12.65;;;;;;;;;;12923017;22;20035;-87
2021/03/25 11:57:45;;;;;;;15.48;11.93;;;;;;;;;;12928260;23;20010;-88
2021/03/25 12:02:46;;;;;;;15.23;12.07;;;;;;;;;;12926323;22;20432;-87
2021/03/25 12:07:47;;;;;;;14.82;11.00;;;;;;;;;;12922668;23;20011;-87
2021/03/25 12:12:49;;;;;;;12.65;10.18;;;;;;;;;;12915992;22;20024;-86
2021/03/25 12:18:01;;;;;;;11.45;9.48;;;;;;;;;;12914690;23;20000;-87
2021/03/25 12:23:05;;;;;;;12.40;10.27;;;;;;;;;;12941763;22;20035;-88
2021/03/25 12:28:06;;;;;;;12.45;9.60;;;;;;;;;;12915673;23;20008;-88
2021/03/25 12:33:07;;;;;;;11.27;9.20;;;;;;;;;;12941307;22;20008;-87
2021/03/25 12:38:11;;;;;;;13.88;12.27;;;;;;;;;;12945976;23;20063;-87
2021/03/25 12:43:14;;;;;;;14.77;10.73;;;;;;;;;;12922968;22;20011;-87
2021/03/25 12:48:16;;;;;;;9.60;7.05;;;;;;;;;;12920145;23;20064;-86
2021/03/25 12:53:17;;;;;;;9.95;7.50;;;;;;;;;;12944131;22;20145;-87
2021/03/25 12:58:24;;;;;;;11.80;7.43;;;;;;;;;;12961571;23;20003;-87
2021/03/25 13:03:25;;;;;;;9.90;7.43;;;;;;;;;;12970673;22;20004;-87
2021/03/25 13:08:26;;;;;;;9.98;7.80;;;;;;;;;;12978248;22;20007;-86
2021/03/25 13:13:26;;;;;;;9.55;7.35;;;;;;;;;;12979315;22;19999;-86
2021/03/25 13:18:28;;;;;;;11.98;7.57;;;;;;;;;;12977214;22;20012;-88
2021/03/25 13:23:29;;;;;;;11.10;7.90;;;;;;;;;;12976588;22;19996;-87
2021/03/25 13:28:30;;;;;;;9.77;6.68;;;;;;;;;;12976158;23;20004;-87
2021/03/25 13:33:31;;;;;;;8.43;6.45;;;;;;;;;;12979162;22;20008;-86
2021/03/25 13:38:32;;;;;;;9.18;6.40;;;;;;;;;;12951344;23;20054;-87
2021/03/25 13:43:35;;;;;;;11.68;7.25;;;;;;;;;;12961934;22;20000;-86
2021/03/25 13:48:35;;;;;;;9.85;8.13;;;;;;;;;;12940938;23;20004;-86
2021/03/25 13:53:36;;;;;;;9.68;7.50;;;;;;;;;;12941272;22;20094;-85
2021/03/25 13:58:51;;;;;;;10.55;9.23;;;;;;;;;;12951750;23;20061;-85
2021/03/25 14:03:55;;;;;;;9.50;7.85;;;;;;;;;;12955121;23;20000;-86
2021/03/25 14:09:01;;;;;;;10.15;7.50;;;;;;;;;;12958211;23;20082;-86
2021/03/25 14:14:04;;;;;;;8.68;7.70;;;;;;;;;;12958611;23;20024;-85
2021/03/25 14:19:05;;;;;;;13.07;8.00;;;;;;;;;;12956874;23;20000;-86
2021/03/25 14:24:06;;;;;;;9.82;7.53;;;;;;;;;;12959889;23;20008;-85
2021/03/25 14:29:07;;;;;;;9.40;6.57;;;;;;;;;;12963742;23;20034;-84
2021/03/25 14:34:08;;;;;;;9.13;6.43;;;;;;;;;;12960764;23;20004;-84
2021/03/25 14:39:12;;;;;;;10.30;7.38;;;;;;;;;;12960977;23;20411;-86
2021/03/25 14:44:13;;;;;;;10.05;7.00;;;;;;;;;;12955240;23;20049;-87
2021/03/25 14:49:14;;;;;;;8.77;7.05;;;;;;;;;;12950843;23;20062;-85
2021/03/25 14:54:15;;;;;;;11.45;7.32;;;;;;;;;;12948150;23;20058;-85
2021/03/25 14:59:24;;;;;;;8.75;6.97;;;;;;;;;;12947197;23;20091;-87
2021/03/25 15:04:30;;;;;;;9.55;6.28;;;;;;;;;;12953316;23;20048;-88
2021/03/25 15:09:35;;;;;;;7.53;6.20;;;;;;;;;;12956960;23;20016;-86
2021/03/25 15:14:36;;;;;;;8.65;6.53;;;;;;;;;;12957320;22;20004;-87
2021/03/25 15:19:47;;;;;;;8.02;6.07;;;;;;;;;;12957927;23;20004;-86
2021/03/25 15:24:48;;;;;;;8.95;5.03;;;;;;;;;;12969513;23;20027;-85
2021/03/25 15:29:49;;;;;;;8.27;4.47;;;;;;;;;;12976965;22;20012;-85
2021/03/25 15:34:50;;;;;;;8.73;4.80;;;;;;;;;;12972745;22;20012;-85
2021/03/25 15:39:51;;;;;;;9.30;4.88;;;;;;;;;;12964152;23;20027;-88
2021/03/25 15:44:55;;;;;;;5.93;4.28;;;;;;;;;;12967397;23;20016;-86
2021/03/25 15:49:59;;;;;;;6.28;4.05;;;;;;;;;;12966497;23;20004;-87
2021/03/25 15:55:00;;;;;;;6.70;4.20;;;;;;;;;;12961391;23;20004;-87
2021/03/25 16:00:03;;;;;;;5.80;4.95;;;;;;;;;;12959977;23;20003;-84
2021/03/25 16:05:05;;;;;;;6.50;4.97;;;;;;;;;;12961758;23;20026;-85
2021/03/25 16:10:10;;;;;;;8.73;7.30;;;;;;;;;;12963670;23;20007;-86
2021/03/25 16:15:18;;;;;;;10.43;6.30;;;;;;;;;;12960009;23;20015;-85
2021/03/25 16:20:21;;;;;;;7.00;6.30;;;;;;;;;;12960477;23;20037;-85
2021/03/25 16:25:22;;;;;;;8.60;6.35;;;;;;;;;;12959831;23;20071;-87
2021/03/25 16:30:24;;;;;;;7.32;5.80;;;;;;;;;;12958504;23;20012;-84
2021/03/25 16:35:30;;;;;;;6.78;5.22;;;;;;;;;;12959277;23;20004;-86
2021/03/25 16:40:31;;;;;;;5.18;4.68;;;;;;;;;;12960868;23;20020;-85
2021/03/25 16:45:41;;;;;;;7.10;4.55;;;;;;;;;;12958104;23;20490;-85
2021/03/25 16:50:43;;;;;;;5.43;4.57;;;;;;;;;;12964220;23;20004;-85
2021/03/25 16:55:50;;;;;;;6.30;4.25;;;;;;;;;;12870761;23;20012;-87
2021/03/25 17:01:15;;;;;;;7.85;4.30;;;;;;;;;;12868146;23;20369;-88
2021/03/25 17:06:18;;;;;;;5.57;3.67;;;;;;;;;;12807980;23;20056;-86
2021/03/25 17:11:53;;;;;;;7.22;4.65;;;;;;;;;;12805668;23;20005;-87
2021/03/25 17:22:50;;;;;;;6.93;4.50;;;;;;;;;;12799136;23;20009;-83
2021/03/25 17:39:56;;;;;;;8.55;7.07;;;;;;;;;;12808499;23;20364;-84
2021/03/25 18:42:18;;;;;;;5.50;5.00;;;;;;;;;;12820286;23;20017;-85
